sensor_id;sensor_type;location;lat;lon;timestamp;P1;durP1;ratioP1;P2;durP2;ratioP2
75496;SDS011;64074;47.540;19.072;2023-06-14T00:00:33;6.00;;;3.95;;
75496;SDS011;64074;47.540;19.072;2023-06-14T00:03:37;7.30;;;4.30;;
75496;SDS011;64074;47.540;19.072;2023-06-14T00:06:41;8.13;;;4.70;;
75496;SDS011;64074;47.540;19.072;2023-06-14T00:09:48;7.57;;;4.43;;
75496;SDS011;64074;47.540;19.072;2023-06-14T00:12:51;6.65;;;4.70;;
75496;SDS011;64074;47.540;19.072;2023-06-14T00:15:55;8.20;;;4.60;;
75496;SDS011;64074;47.540;19.072;2023-06-14T00:18:58;7.10;;;4.13;;
75496;SDS011;64074;47.540;19.072;2023-06-14T00:22:00;8.00;;;4.37;;
75496;SDS011;64074;47.540;19.072;2023-06-14T00:25:04;9.40;;;4.10;;
75496;SDS011;64074;47.540;19.072;2023-06-14T00:28:25;5.43;;;3.83;;
75496;SDS011;64074;47.540;19.072;2023-06-14T00:31:28;6.20;;;4.22;;
75496;SDS011;64074;47.540;19.072;2023-06-14T00:34:32;6.07;;;3.77;;
75496;SDS011;64074;47.540;19.072;2023-06-14T00:37:35;6.73;;;4.03;;
75496;SDS011;64074;47.540;19.072;2023-06-14T00:40:39;8.25;;;4.10;;
75496;SDS011;64074;47.540;19.072;2023-06-14T00:43:42;6.60;;;4.18;;
75496;SDS011;64074;47.540;19.072;2023-06-14T00:46:45;6.50;;;4.35;;
75496;SDS011;64074;47.540;19.072;2023-06-14T00:49:50;6.73;;;4.30;;
75496;SDS011;64074;47.540;19.072;2023-06-14T00:52:54;7.43;;;4.10;;
75496;SDS011;64074;47.540;19.072;2023-06-14T00:55:58;6.38;;;4.60;;
75496;SDS011;64074;47.540;19.072;2023-06-14T00:59:01;6.55;;;4.30;;
75496;SDS011;64074;47.540;19.072;2023-06-14T01:02:05;8.40;;;4.40;;
75496;SDS011;64074;47.540;19.072;2023-06-14T01:05:11;6.33;;;4.30;;
75496;SDS011;64074;47.540;19.072;2023-06-14T01:11:31;6.68;;;4.40;;
75496;SDS011;64074;47.540;19.072;2023-06-14T01:14:40;6.43;;;4.40;;
75496;SDS011;64074;47.540;19.072;2023-06-14T01:17:45;7.32;;;4.20;;
75496;SDS011;64074;47.540;19.072;2023-06-14T01:20:50;7.10;;;4.33;;
75496;SDS011;64074;47.540;19.072;2023-06-14T01:23:56;6.63;;;4.83;;
75496;SDS011;64074;47.540;19.072;2023-06-14T01:27:01;8.07;;;4.30;;
75496;SDS011;64074;47.540;19.072;2023-06-14T01:30:05;13.43;;;9.18;;
75496;SDS011;64074;47.540;19.072;2023-06-14T01:33:09;7.82;;;5.28;;
75496;SDS011;64074;47.540;19.072;2023-06-14T01:36:13;8.87;;;4.80;;
75496;SDS011;64074;47.540;19.072;2023-06-14T01:39:18;7.10;;;4.60;;
75496;SDS011;64074;47.540;19.072;2023-06-14T01:42:25;7.22;;;4.15;;
75496;SDS011;64074;47.540;19.072;2023-06-14T01:45:30;8.10;;;4.38;;
75496;SDS011;64074;47.540;19.072;2023-06-14T01:48:35;7.32;;;4.53;;
75496;SDS011;64074;47.540;19.072;2023-06-14T01:51:39;6.27;;;4.30;;
75496;SDS011;64074;47.540;19.072;2023-06-14T01:54:45;7.23;;;5.00;;
75496;SDS011;64074;47.540;19.072;2023-06-14T01:57:52;7.53;;;4.68;;
75496;SDS011;64074;47.540;19.072;2023-06-14T02:00:59;8.48;;;4.60;;
75496;SDS011;64074;47.540;19.072;2023-06-14T02:04:03;8.05;;;5.00;;
75496;SDS011;64074;47.540;19.072;2023-06-14T02:07:07;7.47;;;4.90;;
75496;SDS011;64074;47.540;19.072;2023-06-14T02:10:14;6.67;;;4.63;;
75496;SDS011;64074;47.540;19.072;2023-06-14T02:13:19;7.63;;;4.90;;
75496;SDS011;64074;47.540;19.072;2023-06-14T02:16:22;6.88;;;4.72;;
75496;SDS011;64074;47.540;19.072;2023-06-14T02:19:25;7.43;;;5.00;;
75496;SDS011;64074;47.540;19.072;2023-06-14T02:22:28;8.03;;;5.20;;
75496;SDS011;64074;47.540;19.072;2023-06-14T02:25:32;6.97;;;5.10;;
75496;SDS011;64074;47.540;19.072;2023-06-14T02:28:35;8.25;;;4.88;;
75496;SDS011;64074;47.540;19.072;2023-06-14T02:31:40;8.93;;;5.20;;
75496;SDS011;64074;47.540;19.072;2023-06-14T02:34:43;8.50;;;5.50;;
75496;SDS011;64074;47.540;19.072;2023-06-14T02:37:49;8.13;;;4.77;;
75496;SDS011;64074;47.540;19.072;2023-06-14T02:40:55;8.83;;;5.63;;
75496;SDS011;64074;47.540;19.072;2023-06-14T02:43:58;8.98;;;5.80;;
75496;SDS011;64074;47.540;19.072;2023-06-14T02:47:04;8.30;;;5.28;;
75496;SDS011;64074;47.540;19.072;2023-06-14T02:50:07;7.50;;;4.90;;
75496;SDS011;64074;47.540;19.072;2023-06-14T02:53:11;8.50;;;5.30;;
75496;SDS011;64074;47.540;19.072;2023-06-14T02:56:15;8.70;;;5.50;;
75496;SDS011;64074;47.540;19.072;2023-06-14T02:59:22;9.73;;;5.60;;
75496;SDS011;64074;47.540;19.072;2023-06-14T03:02:29;9.65;;;5.10;;
75496;SDS011;64074;47.540;19.072;2023-06-14T03:05:35;10.00;;;5.40;;
75496;SDS011;64074;47.540;19.072;2023-06-14T03:08:38;9.83;;;5.40;;
75496;SDS011;64074;47.540;19.072;2023-06-14T03:11:47;8.80;;;5.77;;
75496;SDS011;64074;47.540;19.072;2023-06-14T03:14:52;11.05;;;5.78;;
75496;SDS011;64074;47.540;19.072;2023-06-14T03:17:57;10.98;;;6.30;;
75496;SDS011;64074;47.540;19.072;2023-06-14T03:21:02;11.23;;;5.60;;
75496;SDS011;64074;47.540;19.072;2023-06-14T03:24:06;8.93;;;5.63;;
75496;SDS011;64074;47.540;19.072;2023-06-14T03:27:10;9.57;;;5.90;;
75496;SDS011;64074;47.540;19.072;2023-06-14T03:30:17;10.65;;;5.95;;
75496;SDS011;64074;47.540;19.072;2023-06-14T03:33:23;10.15;;;5.70;;
75496;SDS011;64074;47.540;19.072;2023-06-14T03:36:28;8.65;;;5.88;;
75496;SDS011;64074;47.540;19.072;2023-06-14T03:39:32;8.67;;;5.63;;
75496;SDS011;64074;47.540;19.072;2023-06-14T03:42:38;11.43;;;6.00;;
75496;SDS011;64074;47.540;19.072;2023-06-14T03:45:41;10.77;;;5.60;;
75496;SDS011;64074;47.540;19.072;2023-06-14T03:48:45;10.48;;;6.10;;
75496;SDS011;64074;47.540;19.072;2023-06-14T03:51:50;12.27;;;6.03;;
75496;SDS011;64074;47.540;19.072;2023-06-14T03:54:58;10.70;;;5.87;;
75496;SDS011;64074;47.540;19.072;2023-06-14T03:58:07;14.20;;;6.17;;
75496;SDS011;64074;47.540;19.072;2023-06-14T04:01:12;12.82;;;6.55;;
75496;SDS011;64074;47.540;19.072;2023-06-14T04:04:15;13.77;;;6.53;;
75496;SDS011;64074;47.540;19.072;2023-06-14T04:07:19;11.43;;;6.13;;
75496;SDS011;64074;47.540;19.072;2023-06-14T04:10:27;10.17;;;6.47;;
75496;SDS011;64074;47.540;19.072;2023-06-14T04:13:32;11.17;;;6.30;;
75496;SDS011;64074;47.540;19.072;2023-06-14T04:16:38;11.15;;;6.38;;
75496;SDS011;64074;47.540;19.072;2023-06-14T04:19:41;10.90;;;6.43;;
75496;SDS011;64074;47.540;19.072;2023-06-14T04:22:51;13.15;;;6.78;;
75496;SDS011;64074;47.540;19.072;2023-06-14T04:26:00;12.77;;;7.10;;
75496;SDS011;64074;47.540;19.072;2023-06-14T04:29:05;11.37;;;6.70;;
75496;SDS011;64074;47.540;19.072;2023-06-14T04:32:15;12.20;;;7.05;;
75496;SDS011;64074;47.540;19.072;2023-06-14T04:35:21;17.08;;;7.22;;
75496;SDS011;64074;47.540;19.072;2023-06-14T04:38:26;12.10;;;7.07;;
75496;SDS011;64074;47.540;19.072;2023-06-14T04:41:37;15.57;;;7.03;;
75496;SDS011;64074;47.540;19.072;2023-06-14T04:44:41;12.73;;;6.80;;
75496;SDS011;64074;47.540;19.072;2023-06-14T04:47:47;12.15;;;7.00;;
75496;SDS011;64074;47.540;19.072;2023-06-14T04:50:51;17.33;;;6.80;;
75496;SDS011;64074;47.540;19.072;2023-06-14T04:54:01;11.45;;;7.05;;
75496;SDS011;64074;47.540;19.072;2023-06-14T04:57:24;16.33;;;7.60;;
75496;SDS011;64074;47.540;19.072;2023-06-14T05:00:37;12.97;;;6.63;;
75496;SDS011;64074;47.540;19.072;2023-06-14T05:03:46;14.85;;;7.35;;
75496;SDS011;64074;47.540;19.072;2023-06-14T05:06:54;12.10;;;7.38;;
75496;SDS011;64074;47.540;19.072;2023-06-14T05:10:24;12.93;;;7.22;;
75496;SDS011;64074;47.540;19.072;2023-06-14T05:13:43;15.33;;;7.63;;
75496;SDS011;64074;47.540;19.072;2023-06-14T05:16:53;16.23;;;9.20;;
75496;SDS011;64074;47.540;19.072;2023-06-14T05:20:06;13.48;;;7.60;;
75496;SDS011;64074;47.540;19.072;2023-06-14T05:23:11;12.23;;;6.53;;
75496;SDS011;64074;47.540;19.072;2023-06-14T05:26:18;13.88;;;6.70;;
75496;SDS011;64074;47.540;19.072;2023-06-14T05:29:22;11.10;;;6.77;;
75496;SDS011;64074;47.540;19.072;2023-06-14T05:32:25;11.93;;;6.83;;
75496;SDS011;64074;47.540;19.072;2023-06-14T05:35:31;11.07;;;6.65;;
75496;SDS011;64074;47.540;19.072;2023-06-14T05:38:34;11.15;;;6.10;;
75496;SDS011;64074;47.540;19.072;2023-06-14T05:41:38;11.85;;;6.47;;
75496;SDS011;64074;47.540;19.072;2023-06-14T05:44:48;12.40;;;6.40;;
75496;SDS011;64074;47.540;19.072;2023-06-14T05:47:53;13.63;;;6.60;;
75496;SDS011;64074;47.540;19.072;2023-06-14T05:51:00;11.13;;;6.78;;
75496;SDS011;64074;47.540;19.072;2023-06-14T05:54:03;12.23;;;6.60;;
75496;SDS011;64074;47.540;19.072;2023-06-14T05:57:12;14.00;;;7.60;;
75496;SDS011;64074;47.540;19.072;2023-06-14T06:00:16;12.57;;;6.43;;
75496;SDS011;64074;47.540;19.072;2023-06-14T06:03:21;12.77;;;6.97;;
75496;SDS011;64074;47.540;19.072;2023-06-14T06:06:28;17.15;;;7.00;;
75496;SDS011;64074;47.540;19.072;2023-06-14T06:09:32;12.35;;;6.80;;
75496;SDS011;64074;47.540;19.072;2023-06-14T06:12:48;13.68;;;7.18;;
75496;SDS011;64074;47.540;19.072;2023-06-14T06:15:52;10.83;;;6.33;;
75496;SDS011;64074;47.540;19.072;2023-06-14T06:18:56;11.17;;;7.10;;
75496;SDS011;64074;47.540;19.072;2023-06-14T06:22:02;12.23;;;6.70;;
75496;SDS011;64074;47.540;19.072;2023-06-14T06:25:07;11.07;;;6.18;;
75496;SDS011;64074;47.540;19.072;2023-06-14T06:28:11;9.73;;;5.97;;
75496;SDS011;64074;47.540;19.072;2023-06-14T06:31:16;14.40;;;6.23;;
75496;SDS011;64074;47.540;19.072;2023-06-14T06:34:23;10.03;;;5.80;;
75496;SDS011;64074;47.540;19.072;2023-06-14T06:37:27;13.13;;;6.47;;
75496;SDS011;64074;47.540;19.072;2023-06-14T06:40:30;18.90;;;10.68;;
75496;SDS011;64074;47.540;19.072;2023-06-14T06:43:33;13.52;;;7.13;;
75496;SDS011;64074;47.540;19.072;2023-06-14T06:46:39;12.73;;;6.57;;
75496;SDS011;64074;47.540;19.072;2023-06-14T06:49:44;10.93;;;6.60;;
75496;SDS011;64074;47.540;19.072;2023-06-14T06:52:47;11.07;;;6.43;;
75496;SDS011;64074;47.540;19.072;2023-06-14T06:55:57;11.88;;;6.32;;
75496;SDS011;64074;47.540;19.072;2023-06-14T06:59:04;11.25;;;6.32;;
75496;SDS011;64074;47.540;19.072;2023-06-14T07:02:19;9.23;;;6.17;;
75496;SDS011;64074;47.540;19.072;2023-06-14T07:05:25;14.33;;;6.53;;
75496;SDS011;64074;47.540;19.072;2023-06-14T07:08:40;10.68;;;6.03;;
75496;SDS011;64074;47.540;19.072;2023-06-14T07:11:44;11.10;;;6.20;;
75496;SDS011;64074;47.540;19.072;2023-06-14T07:14:53;10.48;;;6.40;;
75496;SDS011;64074;47.540;19.072;2023-06-14T07:17:58;11.60;;;5.87;;
75496;SDS011;64074;47.540;19.072;2023-06-14T07:24:47;11.30;;;5.43;;
75496;SDS011;64074;47.540;19.072;2023-06-14T07:27:55;10.52;;;5.80;;
75496;SDS011;64074;47.540;19.072;2023-06-14T07:31:00;12.23;;;5.70;;
75496;SDS011;64074;47.540;19.072;2023-06-14T07:34:19;14.07;;;5.70;;
75496;SDS011;64074;47.540;19.072;2023-06-14T07:37:24;8.43;;;5.10;;
75496;SDS011;64074;47.540;19.072;2023-06-14T07:40:28;11.60;;;5.53;;
75496;SDS011;64074;47.540;19.072;2023-06-14T07:43:32;10.98;;;5.53;;
75496;SDS011;64074;47.540;19.072;2023-06-14T07:46:35;11.98;;;5.60;;
75496;SDS011;64074;47.540;19.072;2023-06-14T07:49:38;9.33;;;4.93;;
75496;SDS011;64074;47.540;19.072;2023-06-14T07:52:42;10.80;;;5.17;;
75496;SDS011;64074;47.540;19.072;2023-06-14T07:55:45;11.00;;;5.20;;
75496;SDS011;64074;47.540;19.072;2023-06-14T07:58:56;9.48;;;4.90;;
75496;SDS011;64074;47.540;19.072;2023-06-14T08:02:00;10.55;;;5.32;;
75496;SDS011;64074;47.540;19.072;2023-06-14T08:05:03;12.07;;;5.00;;
75496;SDS011;64074;47.540;19.072;2023-06-14T08:08:10;10.33;;;5.17;;
75496;SDS011;64074;47.540;19.072;2023-06-14T08:11:13;10.38;;;5.15;;
75496;SDS011;64074;47.540;19.072;2023-06-14T08:14:15;13.98;;;6.00;;
75496;SDS011;64074;47.540;19.072;2023-06-14T08:17:29;11.65;;;5.15;;
75496;SDS011;64074;47.540;19.072;2023-06-14T08:20:34;11.17;;;5.40;;
75496;SDS011;64074;47.540;19.072;2023-06-14T08:23:37;12.27;;;5.87;;
75496;SDS011;64074;47.540;19.072;2023-06-14T08:26:41;12.05;;;6.05;;
75496;SDS011;64074;47.540;19.072;2023-06-14T08:29:45;12.02;;;6.20;;
75496;SDS011;64074;47.540;19.072;2023-06-14T08:32:52;8.38;;;5.70;;
75496;SDS011;64074;47.540;19.072;2023-06-14T08:36:17;13.37;;;6.87;;
75496;SDS011;64074;47.540;19.072;2023-06-14T08:39:22;10.03;;;5.60;;
75496;SDS011;64074;47.540;19.072;2023-06-14T08:42:26;14.02;;;5.93;;
75496;SDS011;64074;47.540;19.072;2023-06-14T08:45:34;24.77;;;7.93;;
75496;SDS011;64074;47.540;19.072;2023-06-14T08:48:37;8.13;;;5.07;;
75496;SDS011;64074;47.540;19.072;2023-06-14T08:51:45;10.93;;;5.33;;
75496;SDS011;64074;47.540;19.072;2023-06-14T08:54:50;12.87;;;5.80;;
75496;SDS011;64074;47.540;19.072;2023-06-14T08:57:54;8.27;;;5.57;;
75496;SDS011;64074;47.540;19.072;2023-06-14T09:01:03;11.38;;;5.30;;
75496;SDS011;64074;47.540;19.072;2023-06-14T09:04:07;10.27;;;6.72;;
75496;SDS011;64074;47.540;19.072;2023-06-14T09:07:11;13.93;;;7.80;;
75496;SDS011;64074;47.540;19.072;2023-06-14T09:10:15;12.47;;;5.90;;
75496;SDS011;64074;47.540;19.072;2023-06-14T09:13:23;8.63;;;4.90;;
75496;SDS011;64074;47.540;19.072;2023-06-14T09:16:27;6.97;;;4.38;;
75496;SDS011;64074;47.540;19.072;2023-06-14T09:19:30;9.48;;;4.40;;
75496;SDS011;64074;47.540;19.072;2023-06-14T09:22:34;8.10;;;4.77;;
75496;SDS011;64074;47.540;19.072;2023-06-14T09:25:45;9.40;;;5.03;;
75496;SDS011;64074;47.540;19.072;2023-06-14T09:28:51;10.07;;;5.20;;
75496;SDS011;64074;47.540;19.072;2023-06-14T09:31:54;9.68;;;5.35;;
75496;SDS011;64074;47.540;19.072;2023-06-14T09:35:00;8.02;;;4.70;;
75496;SDS011;64074;47.540;19.072;2023-06-14T09:38:41;8.20;;;5.17;;
75496;SDS011;64074;47.540;19.072;2023-06-14T09:41:52;6.83;;;4.73;;
75496;SDS011;64074;47.540;19.072;2023-06-14T09:45:06;10.43;;;5.13;;
75496;SDS011;64074;47.540;19.072;2023-06-14T09:48:10;9.50;;;4.63;;
75496;SDS011;64074;47.540;19.072;2023-06-14T09:51:21;6.95;;;4.50;;
75496;SDS011;64074;47.540;19.072;2023-06-14T09:54:55;9.17;;;4.40;;
75496;SDS011;64074;47.540;19.072;2023-06-14T09:58:04;8.00;;;4.10;;
75496;SDS011;64074;47.540;19.072;2023-06-14T10:01:19;6.63;;;3.90;;
75496;SDS011;64074;47.540;19.072;2023-06-14T10:04:25;8.45;;;4.53;;
75496;SDS011;64074;47.540;19.072;2023-06-14T10:11:42;4.00;;;3.03;;
75496;SDS011;64074;47.540;19.072;2023-06-14T10:14:49;3.73;;;3.23;;
75496;SDS011;64074;47.540;19.072;2023-06-14T10:24:52;6.43;;;3.78;;
75496;SDS011;64074;47.540;19.072;2023-06-14T10:28:02;4.60;;;3.40;;
75496;SDS011;64074;47.540;19.072;2023-06-14T10:35:25;5.80;;;3.47;;
75496;SDS011;64074;47.540;19.072;2023-06-14T10:38:30;5.75;;;3.53;;
75496;SDS011;64074;47.540;19.072;2023-06-14T10:41:37;4.93;;;4.00;;
75496;SDS011;64074;47.540;19.072;2023-06-14T10:53:43;5.38;;;3.95;;
75496;SDS011;64074;47.540;19.072;2023-06-14T10:57:09;9.63;;;4.20;;
75496;SDS011;64074;47.540;19.072;2023-06-14T11:01:04;9.85;;;5.18;;
75496;SDS011;64074;47.540;19.072;2023-06-14T11:04:54;5.97;;;4.07;;
75496;SDS011;64074;47.540;19.072;2023-06-14T11:13:03;5.05;;;3.47;;
75496;SDS011;64074;47.540;19.072;2023-06-14T11:22:06;5.10;;;3.20;;
75496;SDS011;64074;47.540;19.072;2023-06-14T11:27:42;4.80;;;3.23;;
75496;SDS011;64074;47.540;19.072;2023-06-14T11:30:49;4.80;;;3.30;;
75496;SDS011;64074;47.540;19.072;2023-06-14T11:34:03;5.63;;;3.70;;
75496;SDS011;64074;47.540;19.072;2023-06-14T11:37:29;5.35;;;3.40;;
75496;SDS011;64074;47.540;19.072;2023-06-14T11:40:38;6.20;;;3.90;;
75496;SDS011;64074;47.540;19.072;2023-06-14T11:44:03;6.23;;;3.83;;
75496;SDS011;64074;47.540;19.072;2023-06-14T11:47:33;8.73;;;4.20;;
75496;SDS011;64074;47.540;19.072;2023-06-14T11:50:40;5.50;;;4.18;;
75496;SDS011;64074;47.540;19.072;2023-06-14T11:53:46;8.10;;;4.00;;
75496;SDS011;64074;47.540;19.072;2023-06-14T11:58:25;5.63;;;4.38;;
75496;SDS011;64074;47.540;19.072;2023-06-14T12:02:04;6.63;;;4.73;;
75496;SDS011;64074;47.540;19.072;2023-06-14T12:05:07;7.07;;;4.50;;
75496;SDS011;64074;47.540;19.072;2023-06-14T12:08:23;7.22;;;4.18;;
75496;SDS011;64074;47.540;19.072;2023-06-14T12:11:43;10.73;;;4.43;;
75496;SDS011;64074;47.540;19.072;2023-06-14T12:14:50;11.18;;;4.57;;
75496;SDS011;64074;47.540;19.072;2023-06-14T12:17:55;5.90;;;4.17;;
75496;SDS011;64074;47.540;19.072;2023-06-14T12:20:59;8.20;;;4.50;;
75496;SDS011;64074;47.540;19.072;2023-06-14T12:24:12;6.05;;;4.20;;
75496;SDS011;64074;47.540;19.072;2023-06-14T12:27:25;7.75;;;4.45;;
75496;SDS011;64074;47.540;19.072;2023-06-14T12:30:51;5.88;;;4.28;;
75496;SDS011;64074;47.540;19.072;2023-06-14T12:34:36;5.27;;;4.10;;
75496;SDS011;64074;47.540;19.072;2023-06-14T12:37:45;8.57;;;4.27;;
75496;SDS011;64074;47.540;19.072;2023-06-14T12:41:24;6.65;;;3.35;;
75496;SDS011;64074;47.540;19.072;2023-06-14T12:44:37;4.57;;;3.50;;
75496;SDS011;64074;47.540;19.072;2023-06-14T12:47:43;4.90;;;3.47;;
75496;SDS011;64074;47.540;19.072;2023-06-14T12:50:47;5.10;;;3.90;;
75496;SDS011;64074;47.540;19.072;2023-06-14T12:54:06;5.20;;;3.40;;
75496;SDS011;64074;47.540;19.072;2023-06-14T12:57:14;3.95;;;3.25;;
75496;SDS011;64074;47.540;19.072;2023-06-14T13:00:58;5.10;;;3.60;;
75496;SDS011;64074;47.540;19.072;2023-06-14T13:10:01;5.60;;;3.10;;
75496;SDS011;64074;47.540;19.072;2023-06-14T13:13:04;4.43;;;3.20;;
75496;SDS011;64074;47.540;19.072;2023-06-14T13:16:10;7.60;;;3.00;;
75496;SDS011;64074;47.540;19.072;2023-06-14T13:19:18;4.80;;;2.85;;
75496;SDS011;64074;47.540;19.072;2023-06-14T13:22:25;8.52;;;3.20;;
75496;SDS011;64074;47.540;19.072;2023-06-14T13:25:46;4.97;;;3.30;;
75496;SDS011;64074;47.540;19.072;2023-06-14T13:28:50;5.60;;;2.83;;
75496;SDS011;64074;47.540;19.072;2023-06-14T13:31:57;6.05;;;3.28;;
75496;SDS011;64074;47.540;19.072;2023-06-14T13:35:02;4.47;;;3.00;;
75496;SDS011;64074;47.540;19.072;2023-06-14T13:38:11;5.32;;;2.80;;
75496;SDS011;64074;47.540;19.072;2023-06-14T13:41:25;3.73;;;3.13;;
75496;SDS011;64074;47.540;19.072;2023-06-14T13:44:37;20.30;;;11.13;;
75496;SDS011;64074;47.540;19.072;2023-06-14T13:47:42;8.73;;;3.30;;
75496;SDS011;64074;47.540;19.072;2023-06-14T13:50:52;6.15;;;3.10;;
75496;SDS011;64074;47.540;19.072;2023-06-14T13:53:59;4.53;;;2.90;;
75496;SDS011;64074;47.540;19.072;2023-06-14T13:58:08;6.37;;;3.13;;
75496;SDS011;64074;47.540;19.072;2023-06-14T14:02:19;4.30;;;3.03;;
75496;SDS011;64074;47.540;19.072;2023-06-14T14:05:57;3.53;;;2.95;;
75496;SDS011;64074;47.540;19.072;2023-06-14T14:09:11;3.63;;;2.90;;
75496;SDS011;64074;47.540;19.072;2023-06-14T14:12:18;4.22;;;3.22;;
75496;SDS011;64074;47.540;19.072;2023-06-14T14:15:21;3.70;;;3.20;;
75496;SDS011;64074;47.540;19.072;2023-06-14T14:18:25;6.03;;;3.27;;
75496;SDS011;64074;47.540;19.072;2023-06-14T14:21:31;3.70;;;3.33;;
75496;SDS011;64074;47.540;19.072;2023-06-14T14:24:34;4.07;;;2.72;;
75496;SDS011;64074;47.540;19.072;2023-06-14T14:27:38;5.40;;;2.80;;
75496;SDS011;64074;47.540;19.072;2023-06-14T14:30:42;3.33;;;2.90;;
75496;SDS011;64074;47.540;19.072;2023-06-14T14:33:45;4.00;;;2.97;;
75496;SDS011;64074;47.540;19.072;2023-06-14T14:36:48;4.32;;;2.70;;
75496;SDS011;64074;47.540;19.072;2023-06-14T14:39:51;5.72;;;3.20;;
75496;SDS011;64074;47.540;19.072;2023-06-14T14:42:54;3.50;;;3.13;;
75496;SDS011;64074;47.540;19.072;2023-06-14T14:45:57;3.43;;;3.10;;
75496;SDS011;64074;47.540;19.072;2023-06-14T14:49:00;4.30;;;3.57;;
75496;SDS011;64074;47.540;19.072;2023-06-14T14:52:03;3.63;;;3.20;;
75496;SDS011;64074;47.540;19.072;2023-06-14T14:55:25;4.15;;;3.05;;
75496;SDS011;64074;47.540;19.072;2023-06-14T14:58:27;4.00;;;2.90;;
75496;SDS011;64074;47.540;19.072;2023-06-14T15:01:30;4.27;;;2.90;;
75496;SDS011;64074;47.540;19.072;2023-06-14T15:04:33;3.63;;;2.80;;
75496;SDS011;64074;47.540;19.072;2023-06-14T15:07:36;3.00;;;2.70;;
75496;SDS011;64074;47.540;19.072;2023-06-14T15:10:44;5.43;;;2.65;;
75496;SDS011;64074;47.540;19.072;2023-06-14T15:13:47;4.70;;;3.22;;
75496;SDS011;64074;47.540;19.072;2023-06-14T15:16:51;5.47;;;3.13;;
75496;SDS011;64074;47.540;19.072;2023-06-14T15:19:55;5.57;;;3.10;;
75496;SDS011;64074;47.540;19.072;2023-06-14T15:22:58;6.68;;;3.13;;
75496;SDS011;64074;47.540;19.072;2023-06-14T15:26:04;3.40;;;2.90;;
75496;SDS011;64074;47.540;19.072;2023-06-14T15:29:07;6.22;;;3.15;;
75496;SDS011;64074;47.540;19.072;2023-06-14T15:32:11;4.57;;;3.13;;
75496;SDS011;64074;47.540;19.072;2023-06-14T15:35:16;4.33;;;3.10;;
75496;SDS011;64074;47.540;19.072;2023-06-14T15:38:22;4.35;;;3.10;;
75496;SDS011;64074;47.540;19.072;2023-06-14T15:41:28;3.17;;;2.70;;
75496;SDS011;64074;47.540;19.072;2023-06-14T15:44:31;4.72;;;3.25;;
75496;SDS011;64074;47.540;19.072;2023-06-14T15:47:34;4.63;;;3.00;;
75496;SDS011;64074;47.540;19.072;2023-06-14T15:50:38;4.17;;;3.30;;
75496;SDS011;64074;47.540;19.072;2023-06-14T15:53:43;4.80;;;2.70;;
75496;SDS011;64074;47.540;19.072;2023-06-14T15:56:47;4.50;;;3.00;;
75496;SDS011;64074;47.540;19.072;2023-06-14T15:59:51;5.93;;;2.90;;
75496;SDS011;64074;47.540;19.072;2023-06-14T16:02:55;4.20;;;3.17;;
75496;SDS011;64074;47.540;19.072;2023-06-14T16:05:59;4.03;;;2.97;;
75496;SDS011;64074;47.540;19.072;2023-06-14T16:09:03;5.95;;;3.40;;
75496;SDS011;64074;47.540;19.072;2023-06-14T16:12:06;4.28;;;3.10;;
75496;SDS011;64074;47.540;19.072;2023-06-14T16:15:10;4.15;;;2.78;;
75496;SDS011;64074;47.540;19.072;2023-06-14T16:18:13;3.33;;;2.70;;
75496;SDS011;64074;47.540;19.072;2023-06-14T16:21:16;5.40;;;2.57;;
75496;SDS011;64074;47.540;19.072;2023-06-14T16:24:24;3.67;;;2.83;;
75496;SDS011;64074;47.540;19.072;2023-06-14T16:27:27;5.32;;;3.08;;
75496;SDS011;64074;47.540;19.072;2023-06-14T16:30:30;3.85;;;3.10;;
75496;SDS011;64074;47.540;19.072;2023-06-14T16:33:32;3.60;;;3.03;;
75496;SDS011;64074;47.540;19.072;2023-06-14T16:36:36;5.50;;;3.07;;
75496;SDS011;64074;47.540;19.072;2023-06-14T16:39:41;5.20;;;3.10;;
75496;SDS011;64074;47.540;19.072;2023-06-14T16:42:43;4.20;;;3.25;;
75496;SDS011;64074;47.540;19.072;2023-06-14T16:45:47;3.60;;;2.60;;
75496;SDS011;64074;47.540;19.072;2023-06-14T16:48:50;7.50;;;2.77;;
75496;SDS011;64074;47.540;19.072;2023-06-14T16:51:53;4.70;;;3.30;;
75496;SDS011;64074;47.540;19.072;2023-06-14T16:54:56;3.60;;;2.67;;
75496;SDS011;64074;47.540;19.072;2023-06-14T16:57:59;5.78;;;3.15;;
75496;SDS011;64074;47.540;19.072;2023-06-14T17:01:03;4.63;;;2.95;;
75496;SDS011;64074;47.540;19.072;2023-06-14T17:04:07;3.67;;;2.63;;
75496;SDS011;64074;47.540;19.072;2023-06-14T17:07:11;3.60;;;2.77;;
75496;SDS011;64074;47.540;19.072;2023-06-14T17:10:15;5.72;;;2.72;;
75496;SDS011;64074;47.540;19.072;2023-06-14T17:13:19;5.45;;;2.70;;
75496;SDS011;64074;47.540;19.072;2023-06-14T17:16:22;5.07;;;3.00;;
75496;SDS011;64074;47.540;19.072;2023-06-14T17:19:26;4.60;;;2.73;;
75496;SDS011;64074;47.540;19.072;2023-06-14T17:22:29;5.97;;;2.80;;
75496;SDS011;64074;47.540;19.072;2023-06-14T17:25:39;8.18;;;2.80;;
75496;SDS011;64074;47.540;19.072;2023-06-14T17:28:43;6.43;;;2.90;;
75496;SDS011;64074;47.540;19.072;2023-06-14T17:31:46;6.18;;;2.42;;
75496;SDS011;64074;47.540;19.072;2023-06-14T17:34:48;5.07;;;3.00;;
75496;SDS011;64074;47.540;19.072;2023-06-14T17:37:51;5.73;;;3.10;;
75496;SDS011;64074;47.540;19.072;2023-06-14T17:40:55;4.13;;;2.70;;
75496;SDS011;64074;47.540;19.072;2023-06-14T17:43:58;4.97;;;3.05;;
75496;SDS011;64074;47.540;19.072;2023-06-14T17:47:00;5.45;;;3.20;;
75496;SDS011;64074;47.540;19.072;2023-06-14T17:54:23;5.37;;;2.60;;
75496;SDS011;64074;47.540;19.072;2023-06-14T18:02:40;5.15;;;3.10;;
75496;SDS011;64074;47.540;19.072;2023-06-14T18:15:34;5.10;;;3.40;;
75496;SDS011;64074;47.540;19.072;2023-06-14T18:23:32;6.95;;;3.13;;
75496;SDS011;64074;47.540;19.072;2023-06-14T18:38:46;3.85;;;2.97;;
75496;SDS011;64074;47.540;19.072;2023-06-14T18:41:55;5.18;;;3.10;;
75496;SDS011;64074;47.540;19.072;2023-06-14T18:45:07;4.28;;;3.17;;
75496;SDS011;64074;47.540;19.072;2023-06-14T18:48:16;5.17;;;3.33;;
75496;SDS011;64074;47.540;19.072;2023-06-14T18:51:25;5.17;;;3.00;;
75496;SDS011;64074;47.540;19.072;2023-06-14T18:54:35;4.60;;;3.38;;
75496;SDS011;64074;47.540;19.072;2023-06-14T18:57:40;5.35;;;3.00;;
75496;SDS011;64074;47.540;19.072;2023-06-14T19:00:49;7.38;;;3.03;;
75496;SDS011;64074;47.540;19.072;2023-06-14T19:04:02;5.23;;;3.37;;
75496;SDS011;64074;47.540;19.072;2023-06-14T19:07:27;5.57;;;3.17;;
75496;SDS011;64074;47.540;19.072;2023-06-14T19:10:36;5.03;;;3.20;;
75496;SDS011;64074;47.540;19.072;2023-06-14T19:13:42;5.80;;;3.20;;
75496;SDS011;64074;47.540;19.072;2023-06-14T19:16:52;5.15;;;3.47;;
75496;SDS011;64074;47.540;19.072;2023-06-14T19:20:01;5.23;;;3.20;;
75496;SDS011;64074;47.540;19.072;2023-06-14T19:23:06;4.27;;;3.20;;
75496;SDS011;64074;47.540;19.072;2023-06-14T19:26:14;6.50;;;3.50;;
75496;SDS011;64074;47.540;19.072;2023-06-14T19:29:17;6.05;;;3.15;;
75496;SDS011;64074;47.540;19.072;2023-06-14T19:32:20;6.78;;;3.38;;
75496;SDS011;64074;47.540;19.072;2023-06-14T19:35:24;9.60;;;3.67;;
75496;SDS011;64074;47.540;19.072;2023-06-14T19:38:31;4.47;;;3.47;;
75496;SDS011;64074;47.540;19.072;2023-06-14T19:41:41;4.95;;;3.47;;
75496;SDS011;64074;47.540;19.072;2023-06-14T19:44:50;8.63;;;3.53;;
75496;SDS011;64074;47.540;19.072;2023-06-14T19:47:59;8.77;;;3.78;;
75496;SDS011;64074;47.540;19.072;2023-06-14T19:51:28;4.40;;;3.50;;
75496;SDS011;64074;47.540;19.072;2023-06-14T19:54:41;4.77;;;3.53;;
75496;SDS011;64074;47.540;19.072;2023-06-14T19:57:54;5.15;;;3.60;;